Time,TemperatureF,DewpointF,PressureIn,WindDirection,WindDirectionDegrees,WindSpeedMPH,WindSpeedGustMPH,Humidity,HourlyPrecipIn,Conditions,Clouds,dailyrainin,SoftwareType,DateUTC
2013-02-03 00:00:00,51.5,41.7,30.19,WSW,248,0.0,0.0,69,0.00,,,0.00,Wunderground v.1.15,2013-02-03 06:00:00,
2013-02-03 00:10:00,51.6,41.8,30.19,WSW,248,0.0,0.0,69,0.00,,,0.00,Wunderground v.1.15,2013-02-03 06:10:00,
2013-02-03 00:20:00,51.5,41.7,30.19,WSW,248,0.0,0.0,69,0.00,,,0.00,Wunderground v.1.15,2013-02-03 06:20:00,
2013-02-03 00:30:00,50.9,41.5,30.19,WSW,248,0.0,0.0,70,0.00,,,0.00,Wunderground v.1.15,2013-02-03 06:30:00,
2013-02-03 00:40:00,50.5,41.1,30.19,WSW,248,0.0,0.0,70,0.00,,,0.00,Wunderground v.1.15,2013-02-03 06:40:00,
2013-02-03 00:50:00,50.5,40.7,30.20,WSW,248,0.0,0.0,69,0.00,,,0.00,Wunderground v.1.15,2013-02-03 06:50:00,
2013-02-03 01:00:00,50.2,40.8,30.20,WSW,248,0.0,0.0,70,0.00,,,0.00,Wunderground v.1.15,2013-02-03 07:00:00,
2013-02-03 01:10:00,50.1,40.3,30.19,WSW,248,0.0,0.0,69,0.00,,,0.00,Wunderground v.1.15,2013-02-03 07:10:00,
2013-02-03 01:20:00,50.0,40.2,30.19,WSW,248,0.0,0.0,69,0.00,,,0.00,Wunderground v.1.15,2013-02-03 07:20:00,
2013-02-03 01:25:00,50.0,40.2,30.19,WSW,248,0.0,0.0,69,0.00,,,0.00,Wunderground v.1.15,2013-02-03 07:25:00,
2013-02-03 01:30:00,50.0,40.2,30.19,WSW,248,0.0,0.0,69,0.00,,,0.00,Wunderground v.1.15,2013-02-03 07:30:00,
2013-02-03 01:40:00,50.0,40.2,30.19,WSW,248,0.0,0.0,69,0.00,,,0.00,Wunderground v.1.15,2013-02-03 07:40:00,
2013-02-03 01:50:00,50.1,40.3,30.19,WSW,248,0.0,0.0,69,0.00,,,0.00,Wunderground v.1.15,2013-02-03 07:50:00,
2013-02-03 02:00:00,50.1,40.3,30.19,WSW,248,0.0,0.0,69,0.00,,,0.00,Wunderground v.1.15,2013-02-03 08:00:00,
2013-02-03 02:10:00,49.9,40.1,30.19,WSW,248,0.0,0.0,69,0.00,,,0.00,Wunderground v.1.15,2013-02-03 08:10:00,
2013-02-03 02:15:00,49.8,40.0,30.19,WSW,248,0.0,0.0,69,0.00,,,0.00,Wunderground v.1.15,2013-02-03 08:15:00,
2013-02-03 02:20:00,49.7,39.9,30.19,WSW,248,0.0,0.0,69,0.00,,,0.00,Wunderground v.1.15,2013-02-03 08:20:00,
2013-02-03 02:30:00,49.3,39.6,30.19,WSW,248,0.0,0.0,69,0.00,,,0.00,Wunderground v.1.15,2013-02-03 08:30:00,
2013-02-03 02:40:00,49.0,39.3,30.19,WSW,248,0.0,0.0,69,0.00,,,0.00,Wunderground v.1.15,2013-02-03 08:40:00,
2013-02-03 02:50:00,48.9,39.2,30.19,WSW,248,0.0,0.0,69,0.00,,,0.00,Wunderground v.1.15,2013-02-03 08:50:00,
2013-02-03 02:55:00,48.8,39.1,30.19,WSW,248,0.0,0.0,69,0.00,,,0.00,Wunderground v.1.15,2013-02-03 08:55:00,
2013-02-03 03:00:00,48.7,39.0,30.19,WSW,248,0.0,0.0,69,0.00,,,0.00,Wunderground v.1.15,2013-02-03 09:00:00,
2013-02-03 03:10:00,48.5,38.8,30.18,WSW,248,0.0,0.0,69,0.00,,,0.00,Wunderground v.1.15,2013-02-03 09:10:00,
2013-02-03 03:20:00,48.4,38.7,30.18,WSW,248,0.0,0.0,69,0.00,,,0.00,Wunderground v.1.15,2013-02-03 09:20:00,
2013-02-03 03:30:00,48.1,38.4,30.18,WSW,248,0.0,0.0,69,0.00,,,0.00,Wunderground v.1.15,2013-02-03 09:30:00,
2013-02-03 03:35:00,48.0,38.3,30.19,WSW,248,0.0,0.0,69,0.00,,,0.00,Wunderground v.1.15,2013-02-03 09:35:00,
2013-02-03 03:40:00,47.8,38.1,30.18,WSW,248,0.0,0.0,69,0.00,,,0.00,Wunderground v.1.15,2013-02-03 09:40:00,
2013-02-03 03:50:00,47.5,38.2,30.18,WSW,248,0.0,0.0,70,0.00,,,0.00,Wunderground v.1.15,2013-02-03 09:50:00,
2013-02-03 04:00:00,47.4,37.7,30.19,WSW,248,0.0,0.0,69,0.00,,,0.00,Wunderground v.1.15,2013-02-03 10:00:00,
2013-02-03 04:10:00,47.3,37.6,30.19,WSW,248,0.0,0.0,69,0.00,,,0.00,Wunderground v.1.15,2013-02-03 10:10:00,
2013-02-03 04:20:00,47.2,37.5,30.19,WSW,248,0.0,0.0,69,0.00,,,0.00,Wunderground v.1.15,2013-02-03 10:20:00,
2013-02-03 04:25:00,47.0,37.4,30.19,WSW,248,0.0,0.0,69,0.00,,,0.00,Wunderground v.1.15,2013-02-03 10:25:00,
2013-02-03 04:30:00,46.9,37.6,30.19,WSW,248,0.0,0.0,70,0.00,,,0.00,Wunderground v.1.15,2013-02-03 10:30:00,
2013-02-03 04:40:00,46.6,37.0,30.19,WSW,248,0.0,0.0,69,0.00,,,0.00,Wunderground v.1.15,2013-02-03 10:40:00,
2013-02-03 04:50:00,46.5,36.9,30.19,WSW,248,0.0,0.0,69,0.00,,,0.00,Wunderground v.1.15,2013-02-03 10:50:00,
2013-02-03 05:00:00,46.2,37.0,30.20,WSW,248,0.0,0.0,70,0.00,,,0.00,Wunderground v.1.15,2013-02-03 11:00:00,
2013-02-03 05:05:00,46.1,36.9,30.20,WSW,248,0.0,0.0,70,0.00,,,0.00,Wunderground v.1.15,2013-02-03 11:05:00,
2013-02-03 05:10:00,46.1,36.9,30.20,WSW,248,0.0,0.0,70,0.00,,,0.00,Wunderground v.1.15,2013-02-03 11:10:00,
2013-02-03 05:20:00,46.0,36.8,30.20,WSW,248,0.0,0.0,70,0.00,,,0.00,Wunderground v.1.15,2013-02-03 11:20:00,
2013-02-03 05:30:00,45.9,36.7,30.21,WSW,248,0.0,0.0,70,0.00,,,0.00,Wunderground v.1.15,2013-02-03 11:30:00,
2013-02-03 05:40:00,46.0,36.8,30.21,WSW,248,0.0,0.0,70,0.00,,,0.00,Wunderground v.1.15,2013-02-03 11:40:00,
2013-02-03 05:50:00,45.9,36.7,30.21,WSW,248,0.0,0.0,70,0.00,,,0.00,Wunderground v.1.15,2013-02-03 11:50:00,
2013-02-03 06:00:00,45.6,36.4,30.21,WSW,248,0.0,0.0,70,0.00,,,0.00,Wunderground v.1.15,2013-02-03 12:00:00,
2013-02-03 06:05:00,45.5,36.3,30.22,WSW,248,0.0,0.0,70,0.00,,,0.00,Wunderground v.1.15,2013-02-03 12:05:00,
2013-02-03 06:10:00,45.5,36.3,30.22,WSW,248,0.0,0.0,70,0.00,,,0.00,Wunderground v.1.15,2013-02-03 12:10:00,
2013-02-03 06:20:00,45.3,36.1,30.22,WSW,248,0.0,0.0,70,0.00,,,0.00,Wunderground v.1.15,2013-02-03 12:20:00,
2013-02-03 06:30:00,45.0,35.8,30.23,WSW,248,0.0,0.0,70,0.00,,,0.00,Wunderground v.1.15,2013-02-03 12:30:00,
2013-02-03 06:40:00,44.7,35.5,30.23,WSW,248,0.0,0.0,70,0.00,,,0.00,Wunderground v.1.15,2013-02-03 12:40:00,
2013-02-03 06:45:00,44.5,35.3,30.23,WSW,248,0.0,0.0,70,0.00,,,0.00,Wunderground v.1.15,2013-02-03 12:45:00,
2013-02-03 06:50:00,44.3,35.1,30.23,WSW,248,0.0,0.0,70,0.00,,,0.00,Wunderground v.1.15,2013-02-03 12:50:00,
2013-02-03 07:00:00,43.8,34.6,30.23,WSW,248,0.0,0.0,70,0.00,,,0.00,Wunderground v.1.15,2013-02-03 13:00:00,
2013-02-03 07:10:00,43.3,34.2,30.23,WSW,248,0.0,0.0,70,0.00,,,0.00,Wunderground v.1.15,2013-02-03 13:10:00,
2013-02-03 07:20:00,42.9,33.8,30.23,WSW,248,0.0,0.0,70,0.00,,,0.00,Wunderground v.1.15,2013-02-03 13:20:00,
2013-02-03 07:30:00,42.8,33.7,30.23,WSW,248,0.0,0.0,70,0.00,,,0.00,Wunderground v.1.15,2013-02-03 13:30:00,
2013-02-03 07:35:00,42.7,33.6,30.24,WSW,248,0.0,0.0,70,0.00,,,0.00,Wunderground v.1.15,2013-02-03 13:35:00,
2013-02-03 07:40:00,42.7,33.6,30.24,WSW,248,0.0,0.0,70,0.00,,,0.00,Wunderground v.1.15,2013-02-03 13:40:00,
2013-02-03 07:45:00,42.7,33.6,30.24,WSW,248,0.0,0.0,70,0.00,,,0.00,Wunderground v.1.15,2013-02-03 13:45:00,
2013-02-03 07:50:00,42.9,33.8,30.24,WSW,248,0.0,0.0,70,0.00,,,0.00,Wunderground v.1.15,2013-02-03 13:50:00,
2013-02-03 08:00:00,43.4,34.3,30.24,WSW,248,0.0,0.0,70,0.00,,,0.00,Wunderground v.1.15,2013-02-03 14:00:00,
2013-02-03 08:10:00,44.1,34.9,30.24,WSW,248,0.0,0.0,70,0.00,,,0.00,Wunderground v.1.15,2013-02-03 14:10:00,
2013-02-03 08:20:00,44.8,35.2,30.25,WSW,248,0.0,0.0,69,0.00,,,0.00,Wunderground v.1.15,2013-02-03 14:20:00,
2013-02-03 08:25:00,45.2,35.6,30.25,WSW,248,0.0,0.0,69,0.00,,,0.00,Wunderground v.1.15,2013-02-03 14:25:00,
2013-02-03 08:30:00,45.9,36.3,30.25,WSW,248,0.0,0.0,69,0.00,,,0.00,Wunderground v.1.15,2013-02-03 14:30:00,
2013-02-03 08:35:00,46.5,36.9,30.25,WSW,248,0.0,0.0,69,0.00,,,0.00,Wunderground v.1.15,2013-02-03 14:35:00,
2013-02-03 08:45:00,47.9,38.2,30.25,WSW,248,0.0,0.0,69,0.00,,,0.00,Wunderground v.1.15,2013-02-03 14:45:00,
2013-02-03 08:50:00,48.6,38.9,30.25,WSW,248,0.0,0.0,69,0.00,,,0.00,Wunderground v.1.15,2013-02-03 14:50:00,
2013-02-03 09:00:00,51.5,44.5,30.25,WSW,248,0.0,0.0,77,0.00,,,0.00,Wunderground v.1.15,2013-02-03 15:00:00,
2013-02-03 09:10:00,54.2,47.5,30.25,WSW,249,0.0,0.0,78,0.00,,,0.00,Wunderground v.1.15,2013-02-03 15:10:00,
2013-02-03 09:20:00,56.0,47.5,30.26,North,355,0.0,0.0,73,0.00,,,0.00,Wunderground v.1.15,2013-02-03 15:20:00,
2013-02-03 09:30:00,57.3,47.6,30.26,North,355,0.0,1.0,70,0.00,,,0.00,Wunderground v.1.15,2013-02-03 15:30:00,
2013-02-03 09:35:00,57.5,46.6,30.26,North,355,0.0,1.0,67,0.00,,,0.00,Wunderground v.1.15,2013-02-03 15:35:00,
2013-02-03 09:45:00,58.2,45.2,30.26,NNE,17,0.0,1.0,62,0.00,,,0.00,Wunderground v.1.15,2013-02-03 15:45:00,
2013-02-03 09:50:00,58.8,44.5,30.26,East,82,1.0,1.0,59,0.00,,,0.00,Wunderground v.1.15,2013-02-03 15:50:00,
2013-02-03 10:00:00,59.7,43.5,30.26,ENE,74,1.0,1.0,55,0.00,,,0.00,Wunderground v.1.15,2013-02-03 16:00:00,
2013-02-03 10:05:00,60.2,44.4,30.26,NE,48,1.0,2.0,56,0.00,,,0.00,Wunderground v.1.15,2013-02-03 16:05:00,
2013-02-03 10:10:00,60.7,43.5,30.26,NE,48,1.0,1.0,53,0.00,,,0.00,Wunderground v.1.15,2013-02-03 16:10:00,
2013-02-03 10:20:00,61.9,42.0,30.26,NNE,28,1.0,1.0,48,0.00,,,0.00,Wunderground v.1.15,2013-02-03 16:20:00,
2013-02-03 10:25:00,62.3,41.8,30.26,NW,319,1.0,4.0,47,0.00,,,0.00,Wunderground v.1.15,2013-02-03 16:25:00,
2013-02-03 10:30:00,63.2,41.5,30.26,NW,321,1.0,1.0,45,0.00,,,0.00,Wunderground v.1.15,2013-02-03 16:30:00,
2013-02-03 10:40:00,63.6,40.1,30.26,ENE,72,1.0,1.0,42,0.00,,,0.00,Wunderground v.1.15,2013-02-03 16:40:00,
2013-02-03 10:50:00,65.9,40.9,30.25,NNW,329,1.0,3.0,40,0.00,,,0.00,Wunderground v.1.15,2013-02-03 16:50:00,
2013-02-03 11:00:00,68.1,40.1,30.25,NNW,327,1.0,1.0,36,0.00,,,0.00,Wunderground v.1.15,2013-02-03 17:00:00,
2013-02-03 11:10:00,67.5,38.9,30.25,NE,52,1.0,1.0,35,0.00,,,0.00,Wunderground v.1.15,2013-02-03 17:10:00,
2013-02-03 11:15:00,68.5,38.2,30.25,NW,319,1.0,1.0,33,0.00,,,0.00,Wunderground v.1.15,2013-02-03 17:15:00,
2013-02-03 11:20:00,69.2,38.1,30.25,NNE,33,1.0,1.0,32,0.00,,,0.00,Wunderground v.1.15,2013-02-03 17:20:00,
2013-02-03 11:30:00,70.3,38.2,30.25,NNW,338,1.0,1.0,31,0.00,,,0.00,Wunderground v.1.15,2013-02-03 17:30:00,
2013-02-03 11:40:00,71.9,37.0,30.24,North,5,1.0,1.0,28,0.00,,,0.00,Wunderground v.1.15,2013-02-03 17:40:00,
2013-02-03 11:50:00,72.4,38.3,30.24,NW,319,1.0,1.0,29,0.00,,,0.00,Wunderground v.1.15,2013-02-03 17:50:00,
2013-02-03 12:00:00,73.2,36.2,30.23,NW,325,1.0,1.0,26,0.00,,,0.00,Wunderground v.1.15,2013-02-03 18:00:00,
2013-02-03 12:05:00,72.9,35.0,30.22,NE,48,1.0,1.0,25,0.00,,,0.00,Wunderground v.1.15,2013-02-03 18:05:00,
2013-02-03 12:15:00,72.5,35.6,30.22,East,87,1.0,4.0,26,0.00,,,0.00,Wunderground v.1.15,2013-02-03 18:15:00,
2013-02-03 12:20:00,71.1,34.5,30.21,ESE,115,1.0,1.0,26,0.00,,,0.00,Wunderground v.1.15,2013-02-03 18:20:00,
2013-02-03 12:30:00,70.9,35.2,30.21,NW,319,1.0,1.0,27,0.00,,,0.00,Wunderground v.1.15,2013-02-03 18:30:00,
2013-02-03 12:40:00,70.2,34.6,30.20,East,101,1.0,1.0,27,0.00,,,0.00,Wunderground v.1.15,2013-02-03 18:40:00,
2013-02-03 12:50:00,72.4,36.5,30.19,NNE,15,1.0,1.0,27,0.00,,,0.00,Wunderground v.1.15,2013-02-03 18:50:00,
2013-02-03 13:00:00,72.5,35.6,30.18,North,351,1.0,1.0,26,0.00,,,0.00,Wunderground v.1.15,2013-02-03 19:00:00,
2013-02-03 13:10:00,72.5,37.5,30.17,East,97,1.0,1.0,28,0.00,,,0.00,Wunderground v.1.15,2013-02-03 19:10:00,
2013-02-03 13:15:00,73.8,34.7,30.17,NE,53,1.0,1.0,24,0.00,,,0.00,Wunderground v.1.15,2013-02-03 19:15:00,
2013-02-03 13:20:00,75.2,37.9,30.17,NW,320,0.0,0.0,26,0.00,,,0.00,Wunderground v.1.15,2013-02-03 19:20:00,
2013-02-03 13:30:00,75.9,37.5,30.16,ENE,65,1.0,1.0,25,0.00,,,0.00,Wunderground v.1.15,2013-02-03 19:30:00,
2013-02-03 13:40:00,75.3,39.9,30.16,NW,323,0.0,0.0,28,0.00,,,0.00,Wunderground v.1.15,2013-02-03 19:40:00,
2013-02-03 13:50:00,76.7,38.2,30.15,NW,312,0.0,0.0,25,0.00,,,0.00,Wunderground v.1.15,2013-02-03 19:50:00,
2013-02-03 14:00:00,78.7,37.8,30.15,NW,323,0.0,0.0,23,0.00,,,0.00,Wunderground v.1.15,2013-02-03 20:00:00,
2013-02-03 14:05:00,79.5,38.4,30.15,NW,323,0.0,0.0,23,0.00,,,0.00,Wunderground v.1.15,2013-02-03 20:05:00,
2013-02-03 14:10:00,79.9,37.6,30.15,NW,323,0.0,0.0,22,0.00,,,0.00,Wunderground v.1.15,2013-02-03 20:10:00,
2013-02-03 14:20:00,78.2,37.4,30.15,NW,323,0.0,0.0,23,0.00,,,0.00,Wunderground v.1.15,2013-02-03 20:20:00,
2013-02-03 14:30:00,75.3,36.0,30.14,SSE,167,0.0,0.0,24,0.00,,,0.00,Wunderground v.1.15,2013-02-03 20:30:00,
2013-02-03 14:40:00,76.6,36.0,30.13,SSE,158,0.0,0.0,23,0.00,,,0.00,Wunderground v.1.15,2013-02-03 20:40:00,
2013-02-03 14:50:00,76.5,35.9,30.13,SSE,157,0.0,0.0,23,0.00,,,0.00,Wunderground v.1.15,2013-02-03 20:50:00,
2013-02-03 15:00:00,75.4,36.1,30.12,ENE,76,1.0,1.0,24,0.00,,,0.00,Wunderground v.1.15,2013-02-03 21:00:00,
2013-02-03 15:05:00,74.8,36.6,30.12,ENE,64,0.0,1.0,25,0.00,,,0.00,Wunderground v.1.15,2013-02-03 21:05:00,
2013-02-03 15:15:00,74.1,36.0,30.11,NE,56,0.0,0.0,25,0.00,,,0.00,Wunderground v.1.15,2013-02-03 21:15:00,
2013-02-03 15:20:00,74.4,36.3,30.11,NNW,338,0.0,0.0,25,0.00,,,0.00,Wunderground v.1.15,2013-02-03 21:20:00,
2013-02-03 15:30:00,74.7,36.5,30.10,NNW,339,0.0,0.0,25,0.00,,,0.00,Wunderground v.1.15,2013-02-03 21:30:00,
2013-02-03 15:40:00,73.8,33.7,30.10,NNW,336,0.0,0.0,23,0.00,,,0.00,Wunderground v.1.15,2013-02-03 21:40:00,
2013-02-03 15:50:00,72.1,34.3,30.10,NNW,336,0.0,0.0,25,0.00,,,0.00,Wunderground v.1.15,2013-02-03 21:50:00,
2013-02-03 15:55:00,72.6,36.7,30.10,NNW,336,0.0,0.0,27,0.00,,,0.00,Wunderground v.1.15,2013-02-03 21:55:00,
2013-02-03 16:00:00,73.7,36.7,30.09,NNW,336,0.0,2.0,26,0.00,,,0.00,Wunderground v.1.15,2013-02-03 22:00:00,
2013-02-03 16:10:00,74.2,35.1,30.09,NNW,336,0.0,0.0,24,0.00,,,0.00,Wunderground v.1.15,2013-02-03 22:10:00,
2013-02-03 16:20:00,71.2,35.5,30.09,NNW,336,0.0,0.0,27,0.00,,,0.00,Wunderground v.1.15,2013-02-03 22:20:00,
2013-02-03 16:30:00,70.1,35.5,30.09,NNW,336,0.0,0.0,28,0.00,,,0.00,Wunderground v.1.15,2013-02-03 22:30:00,
2013-02-03 16:40:00,69.0,35.4,30.09,NNW,336,0.0,0.0,29,0.00,,,0.00,Wunderground v.1.15,2013-02-03 22:40:00,
2013-02-03 16:50:00,68.1,33.7,30.09,NNW,336,0.0,0.0,28,0.00,,,0.00,Wunderground v.1.15,2013-02-03 22:50:00,
2013-02-03 17:00:00,67.8,35.2,30.09,NNW,336,0.0,0.0,30,0.00,,,0.00,Wunderground v.1.15,2013-02-03 23:00:00,
2013-02-03 17:10:00,67.3,34.8,30.09,NNW,336,0.0,0.0,30,0.00,,,0.00,Wunderground v.1.15,2013-02-03 23:10:00,
2013-02-03 17:20:00,67.0,34.5,30.08,NNW,336,0.0,0.0,30,0.00,,,0.00,Wunderground v.1.15,2013-02-03 23:20:00,
2013-02-03 17:25:00,66.8,34.3,30.08,NNW,336,0.0,0.0,30,0.00,,,0.00,Wunderground v.1.15,2013-02-03 23:25:00,
2013-02-03 17:30:00,66.5,38.0,30.08,NNW,336,0.0,0.0,35,0.00,,,0.00,Wunderground v.1.15,2013-02-03 23:30:00,
2013-02-03 17:40:00,65.9,37.5,30.08,NNW,336,0.0,0.0,35,0.00,,,0.00,Wunderground v.1.15,2013-02-03 23:40:00,
2013-02-03 17:50:00,65.1,35.3,30.07,NNW,336,0.0,0.0,33,0.00,,,0.00,Wunderground v.1.15,2013-02-03 23:50:00,
2013-02-03 18:00:00,64.2,34.5,30.08,NNW,336,0.0,0.0,33,0.00,,,0.00,Wunderground v.1.15,2013-02-04 00:00:00,
2013-02-03 18:05:00,63.6,35.4,30.08,NNW,336,0.0,0.0,35,0.00,,,0.00,Wunderground v.1.15,2013-02-04 00:05:00,
2013-02-03 18:10:00,62.4,39.0,30.07,NNW,336,0.0,0.0,42,0.00,,,0.00,Wunderground v.1.15,2013-02-04 00:10:00,
2013-02-03 18:20:00,59.7,38.3,30.08,NNW,336,0.0,0.0,45,0.00,,,0.00,Wunderground v.1.15,2013-02-04 00:20:00,
2013-02-03 18:25:00,58.6,40.0,30.08,NNW,336,0.0,0.0,50,0.00,,,0.00,Wunderground v.1.15,2013-02-04 00:25:00,
2013-02-03 18:30:00,58.2,39.6,30.08,NNW,336,0.0,0.0,50,0.00,,,0.00,Wunderground v.1.15,2013-02-04 00:30:00,
2013-02-03 18:40:00,58.0,41.0,30.08,NNW,336,0.0,0.0,53,0.00,,,0.00,Wunderground v.1.15,2013-02-04 00:40:00,
2013-02-03 18:50:00,58.1,42.0,30.08,NNW,336,0.0,0.0,55,0.00,,,0.00,Wunderground v.1.15,2013-02-04 00:50:00,
2013-02-03 19:00:00,57.8,42.7,30.08,NNW,336,0.0,0.0,57,0.00,,,0.00,Wunderground v.1.15,2013-02-04 01:00:00,
2013-02-03 19:10:00,57.2,42.5,30.08,NNW,336,0.0,0.0,58,0.00,,,0.00,Wunderground v.1.15,2013-02-04 01:10:00,
2013-02-03 19:15:00,56.8,42.6,30.08,NNW,336,0.0,0.0,59,0.00,,,0.00,Wunderground v.1.15,2013-02-04 01:15:00,
2013-02-03 19:20:00,56.4,42.7,30.08,NNW,336,0.0,0.0,60,0.00,,,0.00,Wunderground v.1.15,2013-02-04 01:20:00,
2013-02-03 19:30:00,55.8,43.4,30.08,NNW,336,0.0,0.0,63,0.00,,,0.00,Wunderground v.1.15,2013-02-04 01:30:00,
2013-02-03 19:40:00,55.3,44.1,30.08,NNW,336,0.0,0.0,66,0.00,,,0.00,Wunderground v.1.15,2013-02-04 01:40:00,
2013-02-03 19:50:00,54.8,44.0,30.08,NNW,336,0.0,0.0,67,0.00,,,0.00,Wunderground v.1.15,2013-02-04 01:50:00,
2013-02-03 20:00:00,54.4,44.1,30.08,NNW,336,0.0,0.0,68,0.00,,,0.00,Wunderground v.1.15,2013-02-04 02:00:00,
2013-02-03 20:05:00,54.1,44.2,30.08,NNW,336,0.0,0.0,69,0.00,,,0.00,Wunderground v.1.15,2013-02-04 02:05:00,
2013-02-03 20:15:00,53.7,44.5,30.08,NNW,336,0.0,0.0,71,0.00,,,0.00,Wunderground v.1.15,2013-02-04 02:15:00,
2013-02-03 20:20:00,53.4,44.2,30.08,NNW,336,0.0,0.0,71,0.00,,,0.00,Wunderground v.1.15,2013-02-04 02:20:00,
2013-02-03 20:30:00,52.9,44.1,30.08,NNW,336,0.0,0.0,72,0.00,,,0.00,Wunderground v.1.15,2013-02-04 02:30:00,
2013-02-03 20:40:00,52.4,44.0,30.08,NNW,336,0.0,0.0,73,0.00,,,0.00,Wunderground v.1.15,2013-02-04 02:40:00,
2013-02-03 20:50:00,52.0,44.0,30.07,NNW,336,0.0,0.0,74,0.00,,,0.00,Wunderground v.1.15,2013-02-04 02:50:00,
2013-02-03 21:00:00,51.5,43.8,30.07,NNW,336,0.0,0.0,75,0.00,,,0.00,Wunderground v.1.15,2013-02-04 03:00:00,
2013-02-03 21:10:00,51.0,43.7,30.07,NNW,336,0.0,0.0,76,0.00,,,0.00,Wunderground v.1.15,2013-02-04 03:10:00,
2013-02-03 21:20:00,50.5,43.6,30.07,NNW,336,0.0,0.0,77,0.00,,,0.00,Wunderground v.1.15,2013-02-04 03:20:00,
2013-02-03 21:30:00,50.1,43.2,30.07,NNW,336,0.0,0.0,77,0.00,,,0.00,Wunderground v.1.15,2013-02-04 03:30:00,
2013-02-03 21:40:00,49.8,43.2,30.06,NNW,336,0.0,0.0,78,0.00,,,0.00,Wunderground v.1.15,2013-02-04 03:40:00,
2013-02-03 21:45:00,49.5,42.9,30.06,NNW,336,0.0,0.0,78,0.00,,,0.00,Wunderground v.1.15,2013-02-04 03:45:00,
2013-02-03 21:50:00,49.2,43.0,30.06,NNW,336,0.0,0.0,79,0.00,,,0.00,Wunderground v.1.15,2013-02-04 03:50:00,
2013-02-03 22:00:00,48.9,42.7,30.06,NNW,336,0.0,0.0,79,0.00,,,0.00,Wunderground v.1.15,2013-02-04 04:00:00,
2013-02-03 22:10:00,48.8,42.6,30.06,NNW,336,0.0,0.0,79,0.00,,,0.00,Wunderground v.1.15,2013-02-04 04:10:00,
2013-02-03 22:20:00,48.6,42.4,30.06,NNW,336,0.0,0.0,79,0.00,,,0.00,Wunderground v.1.15,2013-02-04 04:20:00,
2013-02-03 22:25:00,48.5,42.6,30.06,NNW,336,0.0,0.0,80,0.00,,,0.00,Wunderground v.1.15,2013-02-04 04:25:00,
2013-02-03 22:30:00,48.3,42.1,30.05,NNW,336,0.0,0.0,79,0.00,,,0.00,Wunderground v.1.15,2013-02-04 04:30:00,
2013-02-03 22:35:00,48.1,41.9,30.05,NNW,336,0.0,0.0,79,0.00,,,0.00,Wunderground v.1.15,2013-02-04 04:35:00,
2013-02-03 22:40:00,47.9,41.7,30.05,NNW,336,0.0,0.0,79,0.00,,,0.00,Wunderground v.1.15,2013-02-04 04:40:00,
2013-02-03 22:50:00,47.6,41.4,30.05,NNW,336,0.0,0.0,79,0.00,,,0.00,Wunderground v.1.15,2013-02-04 04:50:00,
2013-02-03 23:00:00,47.4,41.2,30.04,NNW,336,0.0,0.0,79,0.00,,,0.00,Wunderground v.1.15,2013-02-04 05:00:00,
2013-02-03 23:10:00,47.2,41.0,30.04,NNW,336,0.0,0.0,79,0.00,,,0.00,Wunderground v.1.15,2013-02-04 05:10:00,
2013-02-03 23:15:00,47.0,40.8,30.04,NNW,336,0.0,0.0,79,0.00,,,0.00,Wunderground v.1.15,2013-02-04 05:15:00,
2013-02-03 23:20:00,46.9,40.7,30.05,NNW,336,0.0,0.0,79,0.00,,,0.00,Wunderground v.1.15,2013-02-04 05:20:00,
2013-02-03 23:30:00,46.6,40.4,30.05,NNW,336,0.0,0.0,79,0.00,,,0.00,Wunderground v.1.15,2013-02-04 05:30:00,
2013-02-03 23:35:00,46.5,40.3,30.04,NNW,336,0.0,0.0,79,0.00,,,0.00,Wunderground v.1.15,2013-02-04 05:35:00,
2013-02-03 23:40:00,46.4,40.2,30.04,NNW,336,0.0,0.0,79,0.00,,,0.00,Wunderground v.1.15,2013-02-04 05:40:00,
2013-02-03 23:50:00,46.0,39.9,30.03,NNW,336,0.0,0.0,79,0.00,,,0.00,Wunderground v.1.15,2013-02-04 05:50:00,